createdAt,value
2022-10-08T00:01:57.563Z,3.07
2022-10-08T00:04:03.342Z,3.60
2022-10-08T00:06:09.199Z,3.50
2022-10-08T00:08:12.714Z,3.40
2022-10-08T00:10:16.186Z,3.60
2022-10-08T00:12:19.558Z,4.90
2022-10-08T00:14:23.419Z,4.83
2022-10-08T00:16:29.062Z,4.77
2022-10-08T00:18:32.463Z,4.23
2022-10-08T00:20:37.143Z,3.40
2022-10-08T00:22:41.127Z,3.03
2022-10-08T00:24:46.379Z,3.50
2022-10-08T00:26:50.092Z,3.23
2022-10-08T00:28:54.729Z,3.40
2022-10-08T00:30:58.126Z,3.30
2022-10-08T00:33:02.496Z,2.93
2022-10-08T00:35:06.734Z,3.70
2022-10-08T00:37:11.459Z,3.93
2022-10-08T00:39:16.770Z,4.00
2022-10-08T00:41:22.638Z,3.30
2022-10-08T00:43:42.363Z,3.67
2022-10-08T00:45:48.341Z,4.30
2022-10-08T00:47:53.998Z,4.30
2022-10-08T00:50:00.157Z,3.87
2022-10-08T00:52:03.611Z,3.37
2022-10-08T00:54:08.922Z,3.70
2022-10-08T00:56:12.293Z,3.93
2022-10-08T00:58:19.264Z,4.00
2022-10-08T01:00:25.732Z,3.90
2022-10-08T01:02:29.306Z,3.30
2022-10-08T01:04:32.721Z,3.63
2022-10-08T01:06:45.569Z,3.17
2022-10-08T01:08:56.296Z,2.93
2022-10-08T01:11:09.047Z,3.53
2022-10-08T01:13:22.935Z,3.67
2022-10-08T01:15:32.727Z,3.07
2022-10-08T01:17:44.110Z,3.93
2022-10-08T01:20:17.308Z,4.10
2022-10-08T01:22:35.956Z,2.63
2022-10-08T01:25:02.957Z,3.10
2022-10-08T01:27:15.530Z,3.73
2022-10-08T01:29:23.331Z,3.70
2022-10-08T01:31:31.110Z,3.43
2022-10-08T01:33:40.726Z,10.90
2022-10-08T01:35:48.803Z,7.17
2022-10-08T01:37:56.140Z,5.83
2022-10-08T01:40:03.317Z,4.80
2022-10-08T01:42:09.502Z,3.90
2022-10-08T01:44:18.972Z,3.60
2022-10-08T01:46:27.274Z,3.97
2022-10-08T01:48:35.809Z,3.17
2022-10-08T01:50:46.089Z,3.20
2022-10-08T01:52:54.286Z,3.07
2022-10-08T01:55:02.972Z,3.30
2022-10-08T01:57:10.249Z,3.20
2022-10-08T01:59:18.151Z,2.90
2022-10-08T02:01:27.727Z,3.10
2022-10-08T02:03:31.182Z,3.40
2022-10-08T02:05:37.242Z,3.50
2022-10-08T02:07:43.268Z,3.20
2022-10-08T02:09:48.912Z,3.20
2022-10-08T02:11:52.308Z,2.80
2022-10-08T02:13:55.715Z,3.23
2022-10-08T02:16:11.225Z,2.93
2022-10-08T02:18:18.249Z,3.37
2022-10-08T02:20:28.995Z,3.30
2022-10-08T02:22:36.589Z,2.83
2022-10-08T02:24:44.585Z,3.20
2022-10-08T02:26:50.427Z,3.40
2022-10-08T02:28:59.052Z,3.27
2022-10-08T02:31:09.433Z,3.10
2022-10-08T02:33:16.816Z,3.87
2022-10-08T02:35:25.268Z,3.23
2022-10-08T02:37:36.572Z,3.17
2022-10-08T02:39:43.535Z,3.30
2022-10-08T02:41:51.628Z,3.23
2022-10-08T02:43:57.632Z,3.70
2022-10-08T02:46:07.659Z,3.10
2022-10-08T02:48:17.412Z,3.13
2022-10-08T02:50:27.042Z,2.97
2022-10-08T02:52:36.804Z,3.80
2022-10-08T02:54:43.520Z,3.40
2022-10-08T02:56:50.919Z,3.30
2022-10-08T02:58:54.746Z,3.97
2022-10-08T03:01:04.559Z,4.33
2022-10-08T03:03:13.441Z,3.90
2022-10-08T03:05:19.641Z,2.80
2022-10-08T03:07:26.149Z,2.80
2022-10-08T03:09:33.863Z,4.80
2022-10-08T03:11:37.568Z,4.23
2022-10-08T03:13:44.092Z,2.70
2022-10-08T03:15:50.763Z,2.80
2022-10-08T03:17:54.619Z,2.20
2022-10-08T03:20:03.033Z,3.60
2022-10-08T03:22:08.415Z,2.60
2022-10-08T03:24:13.646Z,3.97
2022-10-08T03:26:18.329Z,4.03
2022-10-08T03:28:21.859Z,8.97
2022-10-08T03:30:25.363Z,6.17
2022-10-08T03:32:28.942Z,4.53
2022-10-08T03:34:32.260Z,3.20
2022-10-08T03:36:36.919Z,3.10
2022-10-08T03:38:40.251Z,3.07
2022-10-08T03:40:43.622Z,4.97
2022-10-08T03:42:47.161Z,2.93
2022-10-08T03:44:50.588Z,4.10
2022-10-08T03:46:56.155Z,3.60
2022-10-08T03:48:59.597Z,3.27
2022-10-08T03:51:05.076Z,3.53
2022-10-08T03:53:09.880Z,3.67
2022-10-08T03:55:13.200Z,3.40
2022-10-08T03:57:16.485Z,3.83
2022-10-08T03:59:19.801Z,3.57
2022-10-08T04:01:24.610Z,3.60
2022-10-08T04:03:28.985Z,3.20
2022-10-08T04:05:32.596Z,2.80
2022-10-08T04:07:35.926Z,4.37
2022-10-08T04:09:40.614Z,4.50
2022-10-08T04:11:43.911Z,3.43
2022-10-08T04:13:47.315Z,3.43
2022-10-08T04:15:51.534Z,3.73
2022-10-08T04:17:54.837Z,3.77
2022-10-08T04:19:58.192Z,3.97
2022-10-08T04:22:01.472Z,3.27
2022-10-08T04:24:05.058Z,3.27
2022-10-08T04:26:11.181Z,3.00
2022-10-08T04:28:14.512Z,3.50
2022-10-08T04:30:18.164Z,3.73
2022-10-08T04:32:21.483Z,4.53
2022-10-08T04:34:24.895Z,3.70
2022-10-08T04:36:28.251Z,3.43
2022-10-08T04:38:31.499Z,3.20
2022-10-08T04:40:37.626Z,3.10
2022-10-08T04:42:42.338Z,2.90
2022-10-08T04:44:45.642Z,2.97
2022-10-08T04:46:49.033Z,4.60
2022-10-08T04:48:54.184Z,3.20
2022-10-08T04:50:58.252Z,3.57
2022-10-08T04:53:01.539Z,3.80
2022-10-08T04:55:05.233Z,3.07
2022-10-08T04:57:08.545Z,3.20
2022-10-08T04:59:13.239Z,3.87
2022-10-08T05:01:19.135Z,3.80
2022-10-08T05:03:22.774Z,3.17
2022-10-08T05:05:26.056Z,3.37
2022-10-08T05:07:30.299Z,3.07
2022-10-08T05:09:33.875Z,3.23
2022-10-08T05:11:37.176Z,2.67
2022-10-08T05:13:41.187Z,3.37
2022-10-08T05:15:45.975Z,3.53
2022-10-08T05:17:49.333Z,3.03
2022-10-08T05:19:52.890Z,3.40
2022-10-08T05:21:56.212Z,2.70
2022-10-08T05:24:02.248Z,3.03
2022-10-08T05:26:13.334Z,3.10
2022-10-08T05:28:16.628Z,2.57
2022-10-08T05:30:22.074Z,2.90
2022-10-08T05:32:26.931Z,2.67
2022-10-08T05:34:30.348Z,3.33
2022-10-08T05:36:35.066Z,3.63
2022-10-08T05:38:39.025Z,3.40
2022-10-08T05:40:42.327Z,2.67
2022-10-08T05:42:45.953Z,2.70
2022-10-08T05:44:49.452Z,3.70
2022-10-08T05:46:52.886Z,3.67
2022-10-08T05:48:59.389Z,3.30
2022-10-08T05:51:06.795Z,2.77
2022-10-08T05:53:10.284Z,3.93
2022-10-08T05:55:13.583Z,3.47
2022-10-08T05:57:16.852Z,3.47
2022-10-08T05:59:22.456Z,3.57
2022-10-08T06:01:28.027Z,3.30
2022-10-08T06:03:31.872Z,3.27
2022-10-08T06:05:36.713Z,3.43
2022-10-08T06:07:40.010Z,3.27
2022-10-08T06:09:44.947Z,3.40
2022-10-08T06:11:49.035Z,3.80
2022-10-08T06:13:53.336Z,3.87
2022-10-08T06:15:57.395Z,3.60
2022-10-08T06:18:02.612Z,4.17
2022-10-08T06:20:06.838Z,2.90
2022-10-08T06:22:11.555Z,3.43
2022-10-08T06:24:15.233Z,3.47
2022-10-08T06:26:19.624Z,3.17
2022-10-08T06:28:23.002Z,3.07
2022-10-08T06:30:26.295Z,2.83
2022-10-08T06:32:29.770Z,4.17
2022-10-08T06:34:33.037Z,2.40
2022-10-08T06:36:37.939Z,3.37
2022-10-08T06:38:42.685Z,5.30
2022-10-08T06:40:46.370Z,4.50
2022-10-08T06:42:49.944Z,3.87
2022-10-08T06:44:53.395Z,4.43
2022-10-08T06:46:56.883Z,5.53
2022-10-08T06:49:05.963Z,6.97
2022-10-08T06:51:12.577Z,4.77
2022-10-08T06:53:16.109Z,4.00
2022-10-08T06:55:20.755Z,4.07
2022-10-08T06:57:24.138Z,4.60
2022-10-08T06:59:27.446Z,3.60
2022-10-08T07:01:33.818Z,3.10
2022-10-08T07:03:38.035Z,3.60
2022-10-08T07:05:41.604Z,4.00
2022-10-08T07:07:44.890Z,3.83
2022-10-08T07:09:48.178Z,4.27
2022-10-08T07:11:52.883Z,5.80
2022-10-08T07:13:56.761Z,6.00
2022-10-08T07:16:04.300Z,7.27
2022-10-08T07:18:11.618Z,6.60
2022-10-08T07:20:15.064Z,6.27
2022-10-08T07:22:18.439Z,6.50
2022-10-08T07:24:21.752Z,6.37
2022-10-08T07:26:27.033Z,8.57
2022-10-08T07:28:33.920Z,8.37
2022-10-08T07:30:37.760Z,8.20
2022-10-08T07:32:41.131Z,8.50
2022-10-08T07:34:44.556Z,8.20
2022-10-08T07:36:47.821Z,9.63
2022-10-08T07:38:54.867Z,7.70
2022-10-08T07:41:00.918Z,7.37
2022-10-08T07:43:04.997Z,8.00
2022-10-08T07:45:10.739Z,10.00
2022-10-08T07:47:14.100Z,6.40
2022-10-08T07:49:19.129Z,7.00
2022-10-08T07:51:22.462Z,6.23
2022-10-08T07:53:25.851Z,7.47
2022-10-08T07:55:30.035Z,7.00
2022-10-08T07:57:33.308Z,6.93
2022-10-08T07:59:36.585Z,6.13
2022-10-08T08:01:41.704Z,7.10
2022-10-08T08:03:45.484Z,7.33
2022-10-08T08:05:48.760Z,6.00
2022-10-08T08:07:53.400Z,8.07
2022-10-08T08:09:56.874Z,8.07
2022-10-08T08:12:02.517Z,10.53
2022-10-08T08:14:05.837Z,8.53
2022-10-08T08:16:10.636Z,7.30
2022-10-08T08:18:15.402Z,6.70
2022-10-08T08:20:18.673Z,7.80
2022-10-08T08:22:21.958Z,7.83
2022-10-08T08:24:25.242Z,8.07
2022-10-08T08:26:32.807Z,7.20
2022-10-08T08:28:37.025Z,7.60
2022-10-08T08:30:40.376Z,7.83
2022-10-08T08:32:46.827Z,10.10
2022-10-08T08:34:52.048Z,8.60
2022-10-08T08:36:55.508Z,7.33
2022-10-08T08:38:59.094Z,8.10
2022-10-08T08:41:14.140Z,6.37
2022-10-08T08:43:19.313Z,7.10
2022-10-08T08:45:45.906Z,5.87
2022-10-08T08:47:57.928Z,6.50
2022-10-08T08:50:07.020Z,6.30
2022-10-08T08:52:15.080Z,6.43
2022-10-08T08:54:18.388Z,5.80
2022-10-08T08:56:25.373Z,5.70
2022-10-08T08:58:35.679Z,7.00
2022-10-08T09:00:42.747Z,6.83
2022-10-08T09:02:56.053Z,5.33
2022-10-08T09:05:03.267Z,5.77
2022-10-08T09:07:12.996Z,4.50
2022-10-08T09:09:26.388Z,4.90
2022-10-08T09:11:31.388Z,4.17
2022-10-08T09:13:38.340Z,4.60
2022-10-08T09:15:43.616Z,4.40
2022-10-08T09:17:49.628Z,4.80
2022-10-08T09:19:53.005Z,4.60
2022-10-08T09:21:56.419Z,4.70
2022-10-08T09:24:01.727Z,4.50
2022-10-08T09:26:15.465Z,5.30
2022-10-08T09:28:44.570Z,4.73
2022-10-08T09:30:48.067Z,4.80
2022-10-08T09:32:55.401Z,4.57
2022-10-08T09:34:59.118Z,4.90
2022-10-08T09:37:05.603Z,4.60
2022-10-08T09:39:19.263Z,4.60
2022-10-08T09:41:23.721Z,4.80
2022-10-08T09:43:27.199Z,5.43
2022-10-08T09:45:34.097Z,4.50
2022-10-08T09:47:37.611Z,4.10
2022-10-08T09:49:41.409Z,4.33
2022-10-08T09:51:44.992Z,4.00
2022-10-08T09:53:52.178Z,3.23
2022-10-08T09:56:00.288Z,4.37
2022-10-08T09:58:05.268Z,3.23
2022-10-08T10:00:24.684Z,3.00
2022-10-08T10:02:31.990Z,3.60
2022-10-08T10:04:37.329Z,3.30
2022-10-08T10:06:46.029Z,3.97
2022-10-08T10:08:56.862Z,3.47
2022-10-08T10:11:01.696Z,4.00
2022-10-08T10:13:10.210Z,3.83
2022-10-08T10:15:17.183Z,2.80
2022-10-08T10:17:32.323Z,4.07
2022-10-08T10:19:43.532Z,3.70
2022-10-08T10:21:54.285Z,2.70
2022-10-08T10:24:11.053Z,3.93
2022-10-08T10:26:21.772Z,3.90
2022-10-08T10:28:34.497Z,3.80
2022-10-08T10:30:48.530Z,4.00
2022-10-08T10:32:57.367Z,5.93
2022-10-08T10:35:06.981Z,3.83
2022-10-08T10:37:15.241Z,3.03
2022-10-08T10:39:28.907Z,3.30
2022-10-08T10:41:38.457Z,3.70
2022-10-08T10:43:49.184Z,3.87
2022-10-08T10:45:59.227Z,2.53
2022-10-08T10:48:02.741Z,2.17
2022-10-08T10:50:13.253Z,2.77
2022-10-08T10:52:41.824Z,2.20
2022-10-08T10:55:03.715Z,2.30
2022-10-08T10:57:13.544Z,2.00
2022-10-08T10:59:32.766Z,3.43
2022-10-08T11:01:45.316Z,2.47
2022-10-08T11:04:01.813Z,2.30
2022-10-08T11:06:34.030Z,2.60
2022-10-08T11:08:45.735Z,2.43
2022-10-08T11:11:03.646Z,2.13
2022-10-08T11:13:23.251Z,2.07
2022-10-08T11:15:34.922Z,1.80
2022-10-08T11:17:50.688Z,2.00
2022-10-08T11:20:04.073Z,2.03
2022-10-08T11:22:18.197Z,2.17
2022-10-08T11:24:41.415Z,2.00
2022-10-08T11:26:51.510Z,1.77
2022-10-08T11:29:09.467Z,1.90
2022-10-08T11:31:24.459Z,2.30
2022-10-08T11:33:29.067Z,2.37
2022-10-08T11:35:37.563Z,2.00
2022-10-08T11:37:47.823Z,1.87
2022-10-08T11:39:59.112Z,2.10
2022-10-08T11:42:11.722Z,1.90
2022-10-08T11:44:18.026Z,1.80
2022-10-08T11:46:28.665Z,1.77
2022-10-08T11:48:34.582Z,2.30
2022-10-08T11:50:38.705Z,1.77
2022-10-08T11:52:42.203Z,2.10
2022-10-08T11:54:55.182Z,2.20
2022-10-08T11:57:14.553Z,1.50
2022-10-08T11:59:37.541Z,2.00
2022-10-08T12:01:52.325Z,1.20
2022-10-08T12:04:05.800Z,1.53
2022-10-08T12:06:18.515Z,2.13
2022-10-08T12:08:53.868Z,1.33
2022-10-08T12:11:17.202Z,1.50
2022-10-08T12:13:31.229Z,1.30
2022-10-08T12:16:07.859Z,1.07
2022-10-08T12:18:33.349Z,1.10
2022-10-08T12:20:38.063Z,1.10
2022-10-08T12:22:46.958Z,1.20
2022-10-08T12:24:56.209Z,1.10
2022-10-08T12:27:25.405Z,1.70
2022-10-08T12:29:29.231Z,1.20
2022-10-08T12:31:39.835Z,0.97
2022-10-08T12:33:43.391Z,1.53
2022-10-08T12:35:59.379Z,0.90
2022-10-08T12:38:27.515Z,1.00
2022-10-08T12:40:37.274Z,0.83
2022-10-08T12:42:42.145Z,0.80
2022-10-08T12:44:57.766Z,1.03
2022-10-08T12:47:15.232Z,0.90
2022-10-08T12:49:25.811Z,1.73
2022-10-08T12:51:38.563Z,0.93
2022-10-08T12:53:45.595Z,1.00
2022-10-08T12:55:52.545Z,1.67
2022-10-08T12:57:56.167Z,1.20
2022-10-08T13:00:01.181Z,1.33
2022-10-08T13:02:24.837Z,1.00
2022-10-08T13:04:30.023Z,0.97
2022-10-08T13:06:34.186Z,1.43
2022-10-08T13:08:39.329Z,1.10
2022-10-08T13:10:44.212Z,0.90
2022-10-08T13:13:00.114Z,1.20
2022-10-08T13:15:08.771Z,0.83
2022-10-08T13:19:40.537Z,0.80
2022-10-08T13:21:56.004Z,1.00
2022-10-08T13:23:59.814Z,1.10
2022-10-08T13:26:03.372Z,1.00
2022-10-08T13:28:11.671Z,1.97
2022-10-08T13:30:30.111Z,1.13
2022-10-08T13:32:35.129Z,1.13
2022-10-08T13:34:44.319Z,1.00
2022-10-08T13:36:53.391Z,1.30
2022-10-08T13:38:56.754Z,1.37
2022-10-08T13:41:05.524Z,1.93
2022-10-08T13:43:08.923Z,0.70
2022-10-08T13:45:16.135Z,0.90
2022-10-08T13:47:22.127Z,0.80
2022-10-08T13:49:27.761Z,0.80
2022-10-08T13:51:32.467Z,0.90
2022-10-08T13:53:36.143Z,0.77
2022-10-08T13:55:41.941Z,0.87
2022-10-08T13:57:45.481Z,0.90
2022-10-08T13:59:49.062Z,1.00
2022-10-08T14:01:53.158Z,0.70
2022-10-08T14:03:56.477Z,1.30
2022-10-08T14:06:00.142Z,1.00
2022-10-08T14:08:08.630Z,1.07
2022-10-08T14:10:13.952Z,1.47
2022-10-08T14:12:18.293Z,1.17
2022-10-08T14:14:21.598Z,1.10
2022-10-08T14:16:24.922Z,1.03
2022-10-08T14:18:28.311Z,0.90
2022-10-08T14:20:31.929Z,0.70
2022-10-08T14:22:38.751Z,1.07
2022-10-08T14:24:43.814Z,1.30
2022-10-08T14:26:47.179Z,0.83
2022-10-08T14:28:50.463Z,1.00
2022-10-08T14:30:53.789Z,0.80
2022-10-08T14:32:57.242Z,2.83
2022-10-08T14:35:00.549Z,1.87
2022-10-08T14:37:05.696Z,1.13
2022-10-08T14:39:09.898Z,1.30
2022-10-08T14:41:16.632Z,3.20
2022-10-08T14:43:20.339Z,0.97
2022-10-08T14:45:23.853Z,1.17
2022-10-08T14:47:27.350Z,1.80
2022-10-08T14:49:30.723Z,1.90
2022-10-08T14:51:38.553Z,2.80
2022-10-08T14:53:42.089Z,0.90
2022-10-08T14:56:10.581Z,1.20
2022-10-08T14:58:10.656Z,1.40
2022-10-08T15:00:15.233Z,1.53
2022-10-08T15:02:18.678Z,1.50
2022-10-08T15:04:22.136Z,1.23
2022-10-08T15:06:25.531Z,1.20
2022-10-08T15:08:29.509Z,3.23
2022-10-08T15:10:32.793Z,1.00
2022-10-08T15:12:36.198Z,1.10
2022-10-08T15:14:40.952Z,1.07
2022-10-08T15:16:44.412Z,1.00
2022-10-08T15:18:48.066Z,1.00
2022-10-08T15:20:58.263Z,1.10
2022-10-08T15:23:01.870Z,1.33
2022-10-08T15:25:05.927Z,0.80
2022-10-08T15:27:09.236Z,1.20
2022-10-08T15:29:12.554Z,1.20
2022-10-08T15:31:19.116Z,1.10
2022-10-08T15:33:22.434Z,0.90
2022-10-08T15:35:25.924Z,1.70
2022-10-08T15:37:29.231Z,0.80
2022-10-08T15:39:35.821Z,1.40
2022-10-08T15:41:41.965Z,1.50
2022-10-08T15:43:45.404Z,4.23
2022-10-08T15:45:48.948Z,1.20
2022-10-08T15:47:53.898Z,1.03
2022-10-08T15:49:57.269Z,1.00
2022-10-08T15:52:01.528Z,0.87
2022-10-08T15:54:05.428Z,1.10
2022-10-08T15:56:08.984Z,1.77
2022-10-08T15:58:19.307Z,1.20
2022-10-08T16:00:38.117Z,1.53
2022-10-08T16:02:41.619Z,1.10
2022-10-08T16:04:47.758Z,1.00
2022-10-08T16:06:51.424Z,0.90
2022-10-08T16:08:57.391Z,1.80
2022-10-08T16:11:10.956Z,0.97
2022-10-08T16:13:14.308Z,1.20
2022-10-08T16:15:17.582Z,1.20
2022-10-08T16:17:21.047Z,1.10
2022-10-08T16:19:26.402Z,1.20
2022-10-08T16:21:33.619Z,1.00
2022-10-08T16:23:38.457Z,1.10
2022-10-08T16:25:45.446Z,1.00
2022-10-08T16:27:49.180Z,1.27
2022-10-08T16:29:52.770Z,1.03
2022-10-08T16:31:56.127Z,1.00
2022-10-08T16:34:00.922Z,1.17
2022-10-08T16:36:06.811Z,1.13
2022-10-08T16:38:11.479Z,1.20
2022-10-08T16:40:14.863Z,0.93
2022-10-08T16:42:18.196Z,1.40
2022-10-08T16:44:22.383Z,1.07
2022-10-08T16:46:27.698Z,1.20
2022-10-08T16:48:31.140Z,1.17
2022-10-08T16:50:38.590Z,2.60
2022-10-08T16:52:42.216Z,1.70
2022-10-08T16:54:49.320Z,1.73
2022-10-08T16:56:54.701Z,1.40
2022-10-08T16:58:59.780Z,1.00
2022-10-08T17:01:08.085Z,2.07
2022-10-08T17:03:11.569Z,3.57
2022-10-08T17:05:16.719Z,2.23
2022-10-08T17:07:20.044Z,2.30
2022-10-08T17:09:23.633Z,1.80
2022-10-08T17:11:28.449Z,1.27
2022-10-08T17:13:31.898Z,1.33
2022-10-08T17:15:35.254Z,1.00
2022-10-08T17:17:38.496Z,1.40
2022-10-08T17:19:41.837Z,1.60
2022-10-08T17:21:45.615Z,1.30
2022-10-08T17:23:49.437Z,1.10
2022-10-08T17:25:56.675Z,1.27
2022-10-08T17:28:01.401Z,1.10
2022-10-08T17:30:05.722Z,1.20
2022-10-08T17:32:09.273Z,1.50
2022-10-08T17:34:12.625Z,1.23
2022-10-08T17:36:18.578Z,0.90
2022-10-08T17:38:21.956Z,1.10
2022-10-08T17:40:25.334Z,1.07
2022-10-08T17:42:28.805Z,0.90
2022-10-08T17:44:33.460Z,1.00
2022-10-08T17:46:38.778Z,1.43
2022-10-08T17:48:42.957Z,1.20
2022-10-08T17:50:46.287Z,1.60
2022-10-08T17:52:50.109Z,1.47
2022-10-08T17:54:53.761Z,1.17
2022-10-08T17:56:58.563Z,1.13
2022-10-08T17:59:02.225Z,1.30
2022-10-08T18:01:09.674Z,1.10
2022-10-08T18:03:14.549Z,1.27
2022-10-08T18:05:18.027Z,1.20
2022-10-08T18:07:21.299Z,1.30
2022-10-08T18:09:24.673Z,1.33
2022-10-08T18:11:29.615Z,1.90
2022-10-08T18:13:33.866Z,1.20
2022-10-08T18:15:37.701Z,1.47
2022-10-08T18:17:42.542Z,1.30
2022-10-08T18:19:45.855Z,1.80
2022-10-08T18:21:49.383Z,1.60
2022-10-08T18:23:53.069Z,1.43
2022-10-08T18:25:56.642Z,1.60
2022-10-08T18:27:59.966Z,1.80
2022-10-08T18:30:03.329Z,1.60
2022-10-08T18:32:06.644Z,2.03
2022-10-08T18:34:14.936Z,2.07
2022-10-08T18:36:19.739Z,1.73
2022-10-08T18:38:23.042Z,2.60
2022-10-08T18:40:26.649Z,3.90
2022-10-08T18:42:29.954Z,3.30
2022-10-08T18:44:33.427Z,2.87
2022-10-08T18:46:38.367Z,2.90
2022-10-08T18:48:42.108Z,2.40
2022-10-08T18:50:46.764Z,2.50
2022-10-08T18:52:50.396Z,2.40
2022-10-08T18:54:54.004Z,2.10
2022-10-08T18:57:00.116Z,2.67
2022-10-08T18:59:06.394Z,2.47
2022-10-08T19:01:18.401Z,3.30
2022-10-08T19:03:21.826Z,3.10
2022-10-08T19:05:25.160Z,3.40
2022-10-08T19:07:29.806Z,3.30
2022-10-08T19:09:33.137Z,3.50
2022-10-08T19:11:43.386Z,3.43
2022-10-08T19:13:48.453Z,3.50
2022-10-08T19:15:51.820Z,3.40
2022-10-08T19:17:55.138Z,3.50
2022-10-08T19:19:58.543Z,2.80
2022-10-08T19:22:02.174Z,3.30
2022-10-08T19:24:08.670Z,3.50
2022-10-08T19:26:12.121Z,3.60
2022-10-08T19:28:15.434Z,3.17
2022-10-08T19:30:23.916Z,3.33
2022-10-08T19:32:28.899Z,3.80
2022-10-08T19:34:33.356Z,3.40
2022-10-08T19:36:38.597Z,3.73
2022-10-08T19:38:41.945Z,4.47
2022-10-08T19:40:46.629Z,4.70
2022-10-08T19:42:50.393Z,11.90
2022-10-08T19:44:54.087Z,11.77
2022-10-08T19:46:57.394Z,9.40
2022-10-08T19:49:03.455Z,11.40
2022-10-08T19:51:08.474Z,10.40
2022-10-08T19:53:11.989Z,10.30
2022-10-08T19:55:15.442Z,8.30
2022-10-08T19:57:20.189Z,8.50
2022-10-08T19:59:23.602Z,12.83
2022-10-08T20:01:28.805Z,11.97
2022-10-08T20:03:33.410Z,8.37
2022-10-08T20:05:36.852Z,6.67
2022-10-08T20:07:40.291Z,5.67
2022-10-08T20:09:43.569Z,6.07
2022-10-08T20:11:47.222Z,5.67
2022-10-08T20:13:52.948Z,5.50
2022-10-08T20:15:56.328Z,39.27
2022-10-08T20:17:59.620Z,8.17
2022-10-08T20:20:20.909Z,8.50
2022-10-08T20:22:26.479Z,7.00
2022-10-08T20:24:29.791Z,6.37
2022-10-08T20:26:34.757Z,6.80
2022-10-08T20:28:38.657Z,5.80
2022-10-08T20:30:43.585Z,4.80
2022-10-08T20:32:47.358Z,4.90
2022-10-08T20:34:50.946Z,5.03
2022-10-08T20:36:54.945Z,4.73
2022-10-08T20:38:59.367Z,4.77
2022-10-08T20:41:02.780Z,4.00
2022-10-08T20:43:06.032Z,4.23
2022-10-08T20:45:12.038Z,4.27
2022-10-08T20:47:16.815Z,3.70
2022-10-08T20:49:20.330Z,4.73
2022-10-08T20:51:25.847Z,4.57
2022-10-08T20:53:29.146Z,3.87
2022-10-08T20:55:32.471Z,4.10
2022-10-08T20:57:35.818Z,3.97
2022-10-08T20:59:39.223Z,5.43
2022-10-08T21:01:43.084Z,4.90
2022-10-08T21:03:48.680Z,5.50
2022-10-08T21:05:52.040Z,5.20
2022-10-08T21:07:55.352Z,5.37
2022-10-08T21:09:58.724Z,5.17
2022-10-08T21:12:02.026Z,4.90
2022-10-08T21:14:07.453Z,4.67
2022-10-08T21:16:13.635Z,5.70
2022-10-08T21:18:16.997Z,6.17
2022-10-08T21:20:22.173Z,4.97
2022-10-08T21:22:25.582Z,4.77
2022-10-08T21:24:28.905Z,6.00
2022-10-08T21:26:33.855Z,5.10
2022-10-08T21:28:37.812Z,4.90
2022-10-08T21:30:41.322Z,5.50
2022-10-08T21:32:46.113Z,6.73
2022-10-08T21:34:49.708Z,5.60
2022-10-08T21:36:54.442Z,6.70
2022-10-08T21:38:59.402Z,6.23
2022-10-08T21:41:08.578Z,6.33
2022-10-08T21:43:12.004Z,6.60
2022-10-08T21:45:15.417Z,6.10
2022-10-08T21:47:19.038Z,6.57
2022-10-08T21:49:22.352Z,6.27
2022-10-08T21:51:27.101Z,7.63
2022-10-08T21:53:33.787Z,7.30
2022-10-08T21:55:37.078Z,6.80
2022-10-08T21:57:40.400Z,5.63
2022-10-08T21:59:43.756Z,5.60
2022-10-08T22:01:48.906Z,6.00
2022-10-08T22:03:55.232Z,5.73
2022-10-08T22:06:00.529Z,6.40
2022-10-08T22:08:03.944Z,4.93
2022-10-08T22:10:09.811Z,5.27
2022-10-08T22:12:13.157Z,5.20
2022-10-08T22:14:17.192Z,5.40
2022-10-08T22:16:22.122Z,5.03
2022-10-08T22:18:27.379Z,6.73
2022-10-08T22:20:30.883Z,5.53
2022-10-08T22:22:34.235Z,5.60
2022-10-08T22:24:37.957Z,5.03
2022-10-08T22:26:45.114Z,5.47
2022-10-08T22:28:50.149Z,5.47
2022-10-08T22:30:53.762Z,6.43
2022-10-08T22:32:57.079Z,5.13
2022-10-08T22:35:00.464Z,4.80
2022-10-08T22:37:03.813Z,5.47
2022-10-08T22:39:07.530Z,4.73
2022-10-08T22:41:12.881Z,4.83
2022-10-08T22:43:17.805Z,4.83
2022-10-08T22:45:21.099Z,5.20
2022-10-08T22:47:24.450Z,6.70
2022-10-08T22:49:27.908Z,5.07
2022-10-08T22:51:31.999Z,4.77
2022-10-08T22:53:36.046Z,4.87
2022-10-08T22:55:41.028Z,5.50
2022-10-08T22:57:45.220Z,5.87
2022-10-08T22:59:49.953Z,5.03
2022-10-08T23:01:53.246Z,5.30
2022-10-08T23:03:56.569Z,4.80
2022-10-08T23:06:05.126Z,4.60
2022-10-08T23:08:08.479Z,5.70
2022-10-08T23:10:11.814Z,4.50
2022-10-08T23:12:15.121Z,4.97
2022-10-08T23:14:18.539Z,4.30
2022-10-08T23:16:23.966Z,4.83
2022-10-08T23:18:27.401Z,4.63
2022-10-08T23:20:30.707Z,5.17
2022-10-08T23:22:34.305Z,4.77
2022-10-08T23:24:37.600Z,4.80
2022-10-08T23:26:40.948Z,4.43
2022-10-08T23:28:45.498Z,5.07
2022-10-08T23:30:47.889Z,4.77
2022-10-08T23:32:52.607Z,3.83
2022-10-08T23:34:55.938Z,4.90
2022-10-08T23:36:59.331Z,4.57
2022-10-08T23:39:03.076Z,4.63
2022-10-08T23:41:09.249Z,4.00
2022-10-08T23:43:12.553Z,5.30
2022-10-08T23:45:15.891Z,4.20
2022-10-08T23:47:19.258Z,3.70
2022-10-08T23:49:24.045Z,3.87
2022-10-08T23:51:29.316Z,4.37
2022-10-08T23:53:33.314Z,3.60
2022-10-08T23:55:36.590Z,3.90
2022-10-08T23:57:39.917Z,4.73
2022-10-08T23:59:43.201Z,4.07
